Wainwright, Missouri
Current Conditions -  °F | °C
As of 6:53 AM on Thursday 23 Oct 2014 (Local Time) from KJEF Reporting Station
Few Clouds Few Clouds  
Wind Chill: 44°   Ceiling: Unl
Heat Index: 47°   Visibility: 10mi
Dew Point: 42°   Wind: 6mph
Humidity: 83%   Direction: 120°ESE
Pressure: 30.16"   Gusts: NA
Location:  38.6152°N, 92.0964°W
Report Text: KJEF 231153Z 12005KT 10SM FEW050 08/06 A3016 RMK AO2 SLP204 T00830056 10089 20061 58005
Loading
Personal Weather Stations






























Interactive Weather Map
Tropical Storm Tracking
New forecast layout! Learn more

10-Day Weather Forecast

Advertisements
Track Severe Weather on mobile